Time;durP1;ratioP1;P1;durP2;ratioP2;P2;SDS_P1;SDS_P2;PMS_P1;PMS_P2;Temp;Humidity;BMP_temperature;BMP_pressure;BME280_temperature;BME280_humidity;BME280_pressure;Samples;Min_cycle;Max_cycle;Signal;HPM_P1;HPM_P2
2024/02/25 00:00:05;;;;;;;7.82;2.80;;;5.50;99.90;;;;;;4994120;28;20053;-85
2024/02/25 00:02:31;;;;;;;6.70;1.00;;;5.50;99.90;;;;;;4979117;28;20164;-85
2024/02/25 00:04:57;;;;;;;2.72;0.70;;;5.50;99.90;;;;;;5001236;28;20479;-85
2024/02/25 00:07:22;;;;;;;2.95;0.52;;;5.50;99.90;;;;;;4988614;28;20053;-86
2024/02/25 00:09:48;;;;;;;2.08;0.50;;;5.40;99.90;;;;;;4978635;28;20026;-85
2024/02/25 00:12:13;;;;;;;2.05;0.43;;;5.50;99.90;;;;;;4991998;28;20030;-86
2024/02/25 00:14:39;;;;;;;2.20;0.50;;;5.50;99.90;;;;;;4997802;28;20117;-86
2024/02/25 00:17:04;;;;;;;1.88;0.50;;;5.50;99.90;;;;;;4986103;28;20547;-85
2024/02/25 00:19:30;;;;;;;4.13;0.82;;;5.60;99.90;;;;;;4977775;28;20470;-85
2024/02/25 00:21:56;;;;;;;2.80;0.40;;;5.60;99.90;;;;;;4976205;28;20117;-85
2024/02/25 00:24:22;;;;;;;1.25;0.35;;;5.60;99.90;;;;;;4973416;28;20483;-85
2024/02/25 00:26:48;;;;;;;2.70;0.40;;;5.60;99.90;;;;;;4970145;28;20022;-85
2024/02/25 00:29:15;;;;;;;1.52;0.40;;;5.60;99.90;;;;;;4972750;28;20030;-85
2024/02/25 00:31:41;;;;;;;1.85;0.50;;;5.70;99.90;;;;;;4976288;28;20119;-85
2024/02/25 00:34:07;;;;;;;2.33;0.50;;;5.70;99.90;;;;;;4977089;28;20086;-85
2024/02/25 00:36:32;;;;;;;3.15;0.35;;;5.70;99.90;;;;;;4970138;28;20026;-86
2024/02/25 00:38:58;;;;;;;4.63;0.60;;;5.70;99.90;;;;;;4977466;28;20031;-86
2024/02/25 00:41:24;;;;;;;1.52;0.30;;;5.70;99.90;;;;;;4976410;28;20060;-85
2024/02/25 00:43:49;;;;;;;1.42;0.47;;;5.70;99.90;;;;;;4993740;28;20030;-85
2024/02/25 00:46:15;;;;;;;2.17;0.75;;;5.60;99.90;;;;;;4976657;28;20536;-85
2024/02/25 00:48:40;;;;;;;2.83;0.30;;;5.70;99.90;;;;;;4976882;28;20031;-85
2024/02/25 00:51:06;;;;;;;4.15;0.40;;;5.70;99.90;;;;;;4975383;28;20022;-85
2024/02/25 00:53:32;;;;;;;3.10;0.40;;;5.80;99.90;;;;;;4971650;28;20045;-86
2024/02/25 00:55:58;;;;;;;1.45;0.50;;;5.80;99.90;;;;;;4974612;28;20117;-86
2024/02/25 00:58:23;;;;;;;3.83;0.50;;;5.80;99.90;;;;;;4982478;28;20407;-86
2024/02/25 01:00:49;;;;;;;1.30;0.40;;;5.80;99.90;;;;;;4974714;28;20119;-86
2024/02/25 01:03:15;;;;;;;3.95;0.50;;;5.80;99.90;;;;;;4972483;28;20100;-85
2024/02/25 01:05:40;;;;;;;1.23;0.35;;;5.80;99.90;;;;;;4964892;28;20033;-85
2024/02/25 01:08:08;;;;;;;3.83;0.68;;;5.70;99.90;;;;;;4975185;28;20037;-86
2024/02/25 01:10:33;;;;;;;1.35;0.38;;;5.70;99.90;;;;;;4976523;28;20510;-86
2024/02/25 01:12:59;;;;;;;1.77;0.40;;;5.80;99.90;;;;;;4977053;28;20118;-85
2024/02/25 01:15:24;;;;;;;1.38;0.40;;;5.70;99.90;;;;;;4975018;28;20042;-86
2024/02/25 01:17:50;;;;;;;2.42;0.93;;;5.70;99.90;;;;;;4987680;28;20019;-85
2024/02/25 01:20:16;;;;;;;4.20;0.40;;;5.70;99.90;;;;;;4976806;28;20103;-86
2024/02/25 01:22:42;;;;;;;2.40;0.38;;;5.70;99.90;;;;;;4974179;28;20027;-85
2024/02/25 01:25:08;;;;;;;1.83;0.40;;;5.70;99.90;;;;;;4972278;28;20106;-85
2024/02/25 01:27:33;;;;;;;2.03;0.25;;;5.70;99.90;;;;;;4974007;28;20030;-86
2024/02/25 01:29:59;;;;;;;2.35;0.43;;;5.70;99.90;;;;;;4975624;28;20041;-85
2024/02/25 01:32:24;;;;;;;1.20;0.30;;;5.70;99.90;;;;;;4972942;28;20562;-85
2024/02/25 01:34:50;;;;;;;2.03;0.63;;;5.70;99.90;;;;;;4975473;28;20038;-86
2024/02/25 01:37:15;;;;;;;4.05;1.27;;;5.70;99.90;;;;;;4974990;28;20035;-85
2024/02/25 01:39:41;;;;;;;3.38;0.30;;;5.70;99.90;;;;;;4991276;28;20383;-86
2024/02/25 01:42:07;;;;;;;1.70;0.40;;;5.70;99.90;;;;;;4974679;28;20471;-85
2024/02/25 01:44:47;;;;;;;1.02;0.30;;;5.70;99.90;;;;;;4975045;28;20027;-85
2024/02/25 01:47:12;;;;;;;1.92;0.30;;;5.70;99.90;;;;;;4974244;28;20030;-86
2024/02/25 01:49:38;;;;;;;2.17;0.40;;;5.70;99.90;;;;;;4974671;28;20203;-86
2024/02/25 01:52:05;;;;;;;2.05;0.32;;;5.80;99.90;;;;;;4974222;28;20093;-85
2024/02/25 01:54:31;;;;;;;1.80;0.30;;;5.80;99.90;;;;;;4973797;28;20491;-86
2024/02/25 01:56:57;;;;;;;2.65;0.40;;;5.80;99.90;;;;;;4971860;28;20092;-85
2024/02/25 01:59:22;;;;;;;5.30;0.50;;;5.80;99.90;;;;;;4971827;28;20026;-86
2024/02/25 02:01:48;;;;;;;2.28;0.40;;;5.80;99.90;;;;;;4973535;28;20084;-85
2024/02/25 02:04:14;;;;;;;8.02;0.60;;;5.80;99.90;;;;;;4987558;28;20030;-85
2024/02/25 02:06:40;;;;;;;2.50;0.40;;;5.80;99.90;;;;;;4973696;28;20051;-86
2024/02/25 02:09:06;;;;;;;0.80;0.40;;;5.90;99.90;;;;;;4970109;28;20066;-86
2024/02/25 02:11:31;;;;;;;2.67;0.40;;;5.90;99.90;;;;;;4973053;28;20031;-85
2024/02/25 02:13:57;;;;;;;4.60;0.50;;;5.90;99.90;;;;;;4974132;28;20775;-86
2024/02/25 02:16:24;;;;;;;1.77;0.40;;;5.90;99.90;;;;;;4978597;28;20027;-86
2024/02/25 02:18:50;;;;;;;1.13;0.50;;;5.90;99.90;;;;;;4973453;28;20558;-85
2024/02/25 02:21:19;;;;;;;2.85;0.40;;;5.90;99.90;;;;;;4994218;28;20085;-86
2024/02/25 02:23:45;;;;;;;2.15;0.50;;;5.90;99.90;;;;;;4976984;28;20018;-86
2024/02/25 02:26:11;;;;;;;0.85;0.32;;;5.90;99.90;;;;;;4977465;28;20133;-86
2024/02/25 02:28:38;;;;;;;1.15;0.50;;;5.90;99.90;;;;;;4979593;28;20068;-86
2024/02/25 02:31:04;;;;;;;0.90;0.47;;;5.90;99.90;;;;;;4977013;28;20037;-86
2024/02/25 02:33:29;;;;;;;0.98;0.50;;;5.90;99.90;;;;;;4971295;28;20034;-86
2024/02/25 02:35:55;;;;;;;1.67;0.57;;;5.90;99.90;;;;;;4976688;28;20283;-86
2024/02/25 02:38:21;;;;;;;1.13;0.40;;;5.90;99.90;;;;;;4978316;28;20030;-86
2024/02/25 02:40:47;;;;;;;1.30;0.57;;;5.90;99.90;;;;;;4980237;28;20022;-86
2024/02/25 02:43:13;;;;;;;1.90;0.60;;;5.90;99.90;;;;;;4993172;28;20073;-86
2024/02/25 02:45:39;;;;;;;1.23;0.57;;;5.90;99.90;;;;;;4977222;28;20027;-86
2024/02/25 02:48:09;;;;;;;2.05;0.50;;;5.90;99.90;;;;;;4992110;28;20069;-85
2024/02/25 02:50:35;;;;;;;2.88;0.60;;;5.90;99.90;;;;;;4971243;28;20085;-86
2024/02/25 02:53:01;;;;;;;2.50;0.50;;;6.00;99.90;;;;;;4986213;28;20042;-86
2024/02/25 02:55:26;;;;;;;2.53;0.50;;;6.00;99.90;;;;;;4990938;28;20026;-85
2024/02/25 02:57:52;;;;;;;1.77;0.70;;;6.00;99.90;;;;;;4995982;28;20125;-85
2024/02/25 03:00:18;;;;;;;1.75;0.50;;;6.00;99.90;;;;;;4994196;28;20034;-86
2024/02/25 03:02:43;;;;;;;1.65;0.55;;;6.00;99.90;;;;;;4993177;28;20026;-86
2024/02/25 03:05:09;;;;;;;1.42;0.57;;;6.00;99.90;;;;;;4972301;28;20030;-86
2024/02/25 03:07:34;;;;;;;1.73;0.50;;;6.00;99.90;;;;;;4971455;28;20029;-86
2024/02/25 03:10:00;;;;;;;1.15;0.70;;;6.00;99.90;;;;;;4964269;28;20080;-85
2024/02/25 03:12:26;;;;;;;2.40;0.70;;;6.00;99.90;;;;;;4977213;28;20045;-86
2024/02/25 03:14:51;;;;;;;1.17;0.60;;;6.00;99.90;;;;;;4970326;28;20125;-85
2024/02/25 03:17:19;;;;;;;1.05;0.47;;;6.00;99.90;;;;;;4976272;28;20061;-85
2024/02/25 03:19:45;;;;;;;1.25;0.50;;;6.00;99.90;;;;;;4985387;28;20035;-86
2024/02/25 03:22:11;;;;;;;1.27;0.40;;;6.00;99.90;;;;;;4976160;28;20039;-85
2024/02/25 03:24:36;;;;;;;3.95;0.50;;;6.00;99.90;;;;;;4977403;28;20054;-85
2024/02/25 03:27:05;;;;;;;1.05;0.40;;;6.00;99.90;;;;;;4973809;28;20027;-85
2024/02/25 03:29:31;;;;;;;1.35;0.60;;;6.10;99.90;;;;;;4976900;28;20117;-85
2024/02/25 03:31:56;;;;;;;0.90;0.30;;;6.00;99.90;;;;;;4973919;28;20098;-85
2024/02/25 03:34:22;;;;;;;0.90;0.35;;;6.10;99.90;;;;;;4978293;28;20447;-86
2024/02/25 03:36:47;;;;;;;0.93;0.32;;;6.00;99.90;;;;;;4977048;28;20022;-85
2024/02/25 03:39:13;;;;;;;3.22;0.32;;;6.10;99.90;;;;;;4976636;28;20066;-85
2024/02/25 03:41:39;;;;;;;2.05;0.40;;;6.00;99.90;;;;;;4970067;28;20471;-86
2024/02/25 03:44:04;;;;;;;1.50;0.45;;;6.00;99.90;;;;;;4974083;28;20066;-85
2024/02/25 03:46:30;;;;;;;1.00;0.40;;;6.00;99.90;;;;;;4976894;28;20022;-85
2024/02/25 03:48:55;;;;;;;0.82;0.40;;;6.00;99.90;;;;;;4978097;28;20034;-86
2024/02/25 03:51:21;;;;;;;1.05;0.45;;;5.90;99.90;;;;;;4977073;28;20072;-86
2024/02/25 03:53:46;;;;;;;0.77;0.40;;;6.00;99.90;;;;;;4971791;28;20422;-86
2024/02/25 03:56:12;;;;;;;1.17;0.40;;;5.90;99.90;;;;;;4976859;28;20054;-86
2024/02/25 03:58:38;;;;;;;0.70;0.30;;;5.90;99.90;;;;;;4995775;28;20053;-85
2024/02/25 04:01:04;;;;;;;2.40;0.50;;;5.90;99.90;;;;;;4970661;28;20026;-86
2024/02/25 04:03:29;;;;;;;1.30;0.40;;;5.90;99.90;;;;;;4970083;28;20410;-86
2024/02/25 04:05:55;;;;;;;2.30;0.50;;;5.90;99.90;;;;;;4983706;28;20026;-86
2024/02/25 04:08:21;;;;;;;0.55;0.30;;;5.90;99.90;;;;;;4978043;28;20030;-86
2024/02/25 04:10:46;;;;;;;1.60;0.35;;;5.90;99.90;;;;;;4986256;28;20027;-86
2024/02/25 04:13:12;;;;;;;0.90;0.30;;;5.90;99.90;;;;;;4971689;28;20035;-86
2024/02/25 04:15:38;;;;;;;1.13;0.40;;;5.90;99.90;;;;;;4993911;28;20031;-86
2024/02/25 04:18:04;;;;;;;0.68;0.30;;;5.90;99.90;;;;;;4972906;28;20026;-86
2024/02/25 04:20:30;;;;;;;0.63;0.38;;;5.90;99.90;;;;;;4984909;28;20038;-86
2024/02/25 04:22:55;;;;;;;0.88;0.38;;;5.90;99.90;;;;;;4986263;28;20098;-86
2024/02/25 04:25:21;;;;;;;1.25;0.43;;;5.90;99.90;;;;;;4984128;28;20054;-86
2024/02/25 04:27:46;;;;;;;1.55;0.40;;;5.80;99.90;;;;;;4988756;28;20029;-86
2024/02/25 04:30:12;;;;;;;1.42;0.30;;;5.80;99.90;;;;;;4996357;28;20038;-86
2024/02/25 04:32:40;;;;;;;0.77;0.32;;;5.80;99.90;;;;;;4974283;28;20427;-86
2024/02/25 04:35:06;;;;;;;1.98;0.40;;;5.80;99.90;;;;;;4993311;28;20045;-86
2024/02/25 04:37:32;;;;;;;0.82;0.40;;;5.80;99.90;;;;;;4969762;28;20076;-85
2024/02/25 04:39:57;;;;;;;0.70;0.30;;;5.80;99.90;;;;;;4973706;28;20038;-85
2024/02/25 04:42:23;;;;;;;1.00;0.88;;;5.80;99.90;;;;;;4975663;28;20050;-86
2024/02/25 04:44:49;;;;;;;1.67;0.40;;;5.80;99.90;;;;;;4976378;28;20548;-86
2024/02/25 04:47:14;;;;;;;1.55;0.40;;;5.80;99.90;;;;;;4973648;28;20034;-85
2024/02/25 04:49:40;;;;;;;2.05;0.55;;;5.70;99.90;;;;;;4977199;28;20030;-85
2024/02/25 04:52:09;;;;;;;2.38;0.50;;;5.70;99.90;;;;;;4972417;28;20118;-86
2024/02/25 04:54:34;;;;;;;0.60;0.30;;;5.70;99.90;;;;;;4971067;28;20090;-86
2024/02/25 04:57:00;;;;;;;6.13;0.63;;;5.70;99.90;;;;;;4962400;28;20054;-86
2024/02/25 04:59:26;;;;;;;1.17;0.50;;;5.70;99.90;;;;;;4975889;28;20045;-85
2024/02/25 05:01:53;;;;;;;1.02;0.50;;;5.70;99.90;;;;;;4973604;28;20470;-85
2024/02/25 05:04:18;;;;;;;4.50;0.50;;;5.60;99.90;;;;;;4975954;28;20038;-85
2024/02/25 05:06:44;;;;;;;2.08;0.45;;;5.70;99.90;;;;;;4974314;28;20092;-86
2024/02/25 05:09:10;;;;;;;1.92;0.60;;;5.70;99.90;;;;;;4974080;28;20032;-86
2024/02/25 05:11:35;;;;;;;1.90;0.40;;;5.70;99.90;;;;;;4967064;28;20247;-86
2024/02/25 05:14:01;;;;;;;0.90;0.50;;;5.70;99.90;;;;;;4974775;28;20037;-86
2024/02/25 05:16:29;;;;;;;1.77;0.47;;;5.70;99.90;;;;;;4963790;28;20076;-86
2024/02/25 05:18:55;;;;;;;0.55;0.32;;;5.70;99.90;;;;;;4975627;28;20102;-85
2024/02/25 05:21:21;;;;;;;1.98;0.50;;;5.60;99.90;;;;;;4975119;28;20038;-85
2024/02/25 05:23:46;;;;;;;2.15;0.50;;;5.60;99.90;;;;;;4967958;28;20031;-86
2024/02/25 05:26:12;;;;;;;2.90;0.52;;;5.60;99.90;;;;;;4973708;28;20033;-86
2024/02/25 05:28:38;;;;;;;1.08;0.60;;;5.60;99.90;;;;;;4971376;28;20026;-86
2024/02/25 05:31:04;;;;;;;1.17;0.50;;;5.60;99.90;;;;;;4976026;28;20116;-86
2024/02/25 05:33:29;;;;;;;1.05;0.57;;;5.70;99.90;;;;;;4974372;28;20025;-86
2024/02/25 05:35:55;;;;;;;1.02;0.50;;;5.60;99.90;;;;;;4974211;28;20022;-86
2024/02/25 05:38:21;;;;;;;1.38;0.60;;;5.60;99.90;;;;;;4968278;28;20026;-86
2024/02/25 05:40:46;;;;;;;1.05;0.50;;;5.60;99.90;;;;;;4971736;28;20506;-86
2024/02/25 05:43:12;;;;;;;2.42;0.60;;;5.60;99.90;;;;;;4972840;28;20046;-86
2024/02/25 05:45:39;;;;;;;1.33;0.63;;;5.60;99.90;;;;;;4975429;28;20033;-86
2024/02/25 05:48:05;;;;;;;2.40;0.70;;;5.60;99.90;;;;;;4972107;28;20026;-85
2024/02/25 05:50:31;;;;;;;2.30;0.70;;;5.70;99.90;;;;;;4965921;28;20027;-86
2024/02/25 05:52:56;;;;;;;1.42;0.70;;;5.70;99.90;;;;;;4981976;28;20097;-86
2024/02/25 05:55:22;;;;;;;1.98;0.68;;;5.60;99.90;;;;;;4975446;28;20117;-86
2024/02/25 05:57:47;;;;;;;2.97;0.77;;;5.70;99.90;;;;;;4984270;28;20121;-86
2024/02/25 06:00:14;;;;;;;2.25;0.80;;;5.70;99.90;;;;;;4970326;28;20027;-85
2024/02/25 06:02:40;;;;;;;2.67;0.85;;;5.70;99.90;;;;;;4974490;28;20030;-85
2024/02/25 06:05:09;;;;;;;2.15;0.90;;;5.60;99.90;;;;;;4974286;28;20034;-86
2024/02/25 06:07:35;;;;;;;1.85;0.80;;;5.60;99.90;;;;;;4978450;28;20065;-86
2024/02/25 06:10:01;;;;;;;1.73;0.88;;;5.60;99.90;;;;;;4969550;28;20117;-86
2024/02/25 06:12:26;;;;;;;2.30;0.93;;;5.60;99.90;;;;;;4973907;28;20030;-85
2024/02/25 06:14:52;;;;;;;2.70;1.15;;;5.60;99.90;;;;;;4974528;28;20411;-86
2024/02/25 06:17:17;;;;;;;3.63;1.20;;;5.60;99.90;;;;;;4975549;28;20030;-86
2024/02/25 06:19:43;;;;;;;1.58;1.00;;;5.60;99.90;;;;;;4973006;28;20034;-85
2024/02/25 06:22:09;;;;;;;2.67;1.38;;;5.60;99.90;;;;;;4969860;28;20023;-86
2024/02/25 06:24:34;;;;;;;3.55;1.20;;;5.60;99.90;;;;;;4971083;28;20514;-86
2024/02/25 06:27:00;;;;;;;2.33;1.20;;;5.60;99.90;;;;;;4985688;28;20034;-86
2024/02/25 06:29:25;;;;;;;2.80;1.52;;;5.60;99.90;;;;;;4973719;28;20038;-86
2024/02/25 06:31:52;;;;;;;2.30;1.23;;;5.60;99.90;;;;;;4973706;28;20034;-87
2024/02/25 06:34:17;;;;;;;2.33;1.55;;;5.60;99.90;;;;;;4972163;28;20052;-86
2024/02/25 06:36:43;;;;;;;4.20;1.73;;;5.60;99.90;;;;;;4960792;28;20110;-86
2024/02/25 06:39:10;;;;;;;3.40;1.73;;;5.60;99.90;;;;;;4988871;28;20026;-86
2024/02/25 06:41:36;;;;;;;4.50;1.60;;;5.60;99.90;;;;;;4975357;28;20031;-86
2024/02/25 06:44:01;;;;;;;3.15;1.48;;;5.70;99.90;;;;;;4967296;28;20026;-86
2024/02/25 06:46:27;;;;;;;4.38;1.73;;;5.70;99.90;;;;;;4966865;28;20062;-86
2024/02/25 06:48:52;;;;;;;3.08;1.90;;;5.70;99.90;;;;;;4960009;28;20056;-85
2024/02/25 06:51:28;;;;;;;3.97;1.77;;;5.70;99.90;;;;;;4964349;28;20479;-86
2024/02/25 06:53:54;;;;;;;3.00;1.60;;;5.80;99.90;;;;;;4966790;28;20041;-85
2024/02/25 06:56:20;;;;;;;2.78;1.60;;;5.80;99.90;;;;;;4971971;28;20576;-86
2024/02/25 06:58:47;;;;;;;2.55;1.88;;;5.70;99.90;;;;;;4977558;28;20041;-87
2024/02/25 07:01:13;;;;;;;3.42;2.03;;;5.70;99.90;;;;;;4975339;28;20031;-86
2024/02/25 07:03:44;;;;;;;3.95;2.75;;;5.70;99.90;;;;;;4966484;28;20041;-85
2024/02/25 07:06:10;;;;;;;3.47;2.60;;;5.70;99.90;;;;;;4975409;28;20023;-86
2024/02/25 07:08:37;;;;;;;3.25;2.58;;;5.60;99.90;;;;;;4977187;28;20034;-86
2024/02/25 07:11:13;;;;;;;5.05;2.22;;;5.60;99.90;;;;;;4970293;28;20033;-86
2024/02/25 07:13:39;;;;;;;3.17;2.55;;;5.60;99.90;;;;;;4976982;28;20490;-86
2024/02/25 07:16:04;;;;;;;3.78;2.60;;;5.60;99.90;;;;;;4976907;28;20033;-86
2024/02/25 07:18:30;;;;;;;3.35;2.17;;;5.60;99.90;;;;;;4970847;28;20070;-87
2024/02/25 07:20:56;;;;;;;4.18;2.17;;;5.70;99.90;;;;;;4974330;28;20113;-87
2024/02/25 07:23:21;;;;;;;4.03;2.78;;;5.60;99.90;;;;;;4976336;28;20027;-86
2024/02/25 07:25:47;;;;;;;4.18;2.42;;;5.70;99.90;;;;;;4971543;28;20033;-86
2024/02/25 07:28:12;;;;;;;3.45;2.65;;;5.80;99.90;;;;;;4975119;28;20466;-86
2024/02/25 07:30:38;;;;;;;5.05;3.30;;;5.80;99.90;;;;;;4977491;28;20034;-86
2024/02/25 07:33:03;;;;;;;3.42;2.67;;;5.90;99.90;;;;;;4977916;28;20022;-86
2024/02/25 07:35:29;;;;;;;4.78;2.72;;;5.90;99.90;;;;;;4978045;28;20425;-86
2024/02/25 07:37:55;;;;;;;6.38;2.95;;;6.00;99.90;;;;;;4976243;28;20035;-86
2024/02/25 07:40:20;;;;;;;4.38;2.67;;;6.00;99.90;;;;;;4979648;28;20109;-86
2024/02/25 07:42:46;;;;;;;5.10;3.38;;;6.00;99.90;;;;;;4978072;28;20026;-86
2024/02/25 07:45:12;;;;;;;3.80;2.83;;;6.00;99.90;;;;;;4977938;28;20034;-86
2024/02/25 07:47:37;;;;;;;6.38;3.70;;;6.00;99.90;;;;;;4969976;28;20528;-86
2024/02/25 07:50:03;;;;;;;6.50;3.38;;;6.00;99.90;;;;;;4975001;28;20032;-87
2024/02/25 07:52:29;;;;;;;4.40;3.47;;;6.00;99.90;;;;;;4975911;28;20395;-86
2024/02/25 07:54:54;;;;;;;6.25;4.40;;;6.00;99.90;;;;;;4998411;28;20088;-85
2024/02/25 07:57:20;;;;;;;4.60;3.85;;;6.00;99.90;;;;;;4969169;28;20042;-85
2024/02/25 07:59:45;;;;;;;6.72;3.60;;;6.00;99.90;;;;;;4979627;28;20030;-85
2024/02/25 08:02:11;;;;;;;4.03;3.08;;;6.00;99.90;;;;;;4964317;28;20041;-85
2024/02/25 08:04:37;;;;;;;6.65;3.80;;;6.00;99.90;;;;;;4972044;28;20097;-83
2024/02/25 08:07:04;;;;;;;4.05;3.08;;;6.00;99.90;;;;;;4970400;28;20031;-83
2024/02/25 08:09:29;;;;;;;5.07;3.35;;;6.00;99.90;;;;;;4967661;28;20039;-85
2024/02/25 08:11:57;;;;;;;4.15;2.90;;;6.00;99.90;;;;;;4976643;28;20033;-84
2024/02/25 08:14:23;;;;;;;4.43;3.05;;;6.00;99.90;;;;;;4965637;28;20189;-85
2024/02/25 08:16:49;;;;;;;4.93;2.65;;;6.00;99.90;;;;;;4960939;28;20545;-84
2024/02/25 08:19:14;;;;;;;5.80;2.55;;;6.00;99.90;;;;;;4962317;28;20070;-82
2024/02/25 08:21:40;;;;;;;3.67;2.53;;;6.00;99.90;;;;;;4974035;28;20034;-85
2024/02/25 08:24:07;;;;;;;3.90;2.58;;;6.00;99.90;;;;;;4960719;28;20514;-85
2024/02/25 08:26:32;;;;;;;5.50;3.42;;;6.00;99.90;;;;;;4965462;28;20035;-84
2024/02/25 08:28:58;;;;;;;5.18;3.67;;;6.10;99.90;;;;;;4959741;28;20046;-84
2024/02/25 08:31:24;;;;;;;7.22;4.00;;;6.10;99.90;;;;;;4960108;28;20033;-84
2024/02/25 08:33:50;;;;;;;6.95;4.32;;;6.20;99.90;;;;;;4960730;28;20042;-85
2024/02/25 08:36:15;;;;;;;5.95;3.97;;;6.20;99.90;;;;;;4969606;28;20034;-86
2024/02/25 08:38:41;;;;;;;7.45;4.47;;;6.30;99.90;;;;;;4957368;28;20475;-85
2024/02/25 08:41:07;;;;;;;5.70;3.35;;;6.40;99.90;;;;;;4960464;28;20035;-84
2024/02/25 08:43:32;;;;;;;7.80;3.58;;;6.40;99.90;;;;;;4959468;28;20030;-85
2024/02/25 08:45:58;;;;;;;4.57;3.08;;;6.50;99.90;;;;;;4961808;28;20030;-85
2024/02/25 08:48:24;;;;;;;5.63;3.50;;;6.50;99.90;;;;;;4960034;28;20023;-85
2024/02/25 08:50:49;;;;;;;5.22;3.30;;;6.50;99.90;;;;;;4965676;28;21579;-85
2024/02/25 08:53:15;;;;;;;5.32;3.20;;;6.50;99.90;;;;;;4963855;28;20047;-85
2024/02/25 08:55:41;;;;;;;5.47;4.00;;;6.60;99.90;;;;;;4960157;28;20082;-85
2024/02/25 08:58:07;;;;;;;5.20;3.67;;;6.50;99.90;;;;;;4961020;28;20415;-85
2024/02/25 09:00:33;;;;;;;5.88;3.45;;;6.50;99.90;;;;;;4960455;28;20033;-85
2024/02/25 09:03:00;;;;;;;6.28;4.22;;;6.60;99.90;;;;;;4962662;28;20050;-85
2024/02/25 09:05:26;;;;;;;7.15;4.13;;;6.70;99.90;;;;;;4964462;28;20118;-85
2024/02/25 09:07:53;;;;;;;5.07;3.78;;;6.60;99.90;;;;;;4961524;28;20123;-85
2024/02/25 09:10:19;;;;;;;7.70;4.05;;;6.70;99.90;;;;;;4971663;28;20483;-85
2024/02/25 09:12:47;;;;;;;4.18;3.40;;;6.70;99.90;;;;;;4962520;28;20080;-86
2024/02/25 09:15:15;;;;;;;6.13;3.95;;;6.70;99.90;;;;;;4987613;28;20045;-86
2024/02/25 09:17:40;;;;;;;5.53;3.17;;;6.70;99.90;;;;;;4961982;28;21947;-86
2024/02/25 09:20:09;;;;;;;4.63;3.08;;;6.70;99.90;;;;;;4963163;28;20073;-85
2024/02/25 09:22:35;;;;;;;5.75;3.25;;;6.70;99.90;;;;;;4982325;28;20023;-85
2024/02/25 09:25:00;;;;;;;5.72;3.03;;;6.70;99.90;;;;;;4973571;28;20053;-85
2024/02/25 09:27:26;;;;;;;3.58;2.33;;;6.70;99.90;;;;;;4976661;28;20131;-85
2024/02/25 09:29:51;;;;;;;3.28;2.13;;;6.60;99.90;;;;;;4974524;28;20479;-84
2024/02/25 09:32:17;;;;;;;5.97;1.95;;;6.70;99.90;;;;;;4960586;28;20091;-85
2024/02/25 09:34:44;;;;;;;3.15;1.50;;;6.70;99.90;;;;;;4957895;28;20038;-86
2024/02/25 09:37:10;;;;;;;3.10;1.75;;;6.80;99.90;;;;;;4974266;28;20027;-85
2024/02/25 09:39:36;;;;;;;3.47;1.73;;;6.80;99.90;;;;;;4958153;28;20511;-85
2024/02/25 09:42:08;;;;;;;3.70;2.25;;;6.80;99.90;;;;;;4958630;28;20034;-85
2024/02/25 09:44:37;;;;;;;4.25;2.50;;;6.90;99.90;;;;;;4970480;28;20040;-85
2024/02/25 09:47:07;;;;;;;8.75;3.40;;;7.00;99.90;;;;;;4976253;28;20030;-86
2024/02/25 09:49:35;;;;;;;4.45;3.15;;;7.00;99.90;;;;;;4973225;28;20035;-85
2024/02/25 09:52:02;;;;;;;4.75;3.08;;;7.10;99.90;;;;;;4956958;28;20028;-85
2024/02/25 09:54:29;;;;;;;4.65;3.65;;;7.10;99.90;;;;;;4972302;28;20049;-86
2024/02/25 09:56:54;;;;;;;5.93;4.40;;;7.20;99.90;;;;;;4972147;28;20517;-85
2024/02/25 09:59:20;;;;;;;5.13;4.07;;;7.30;99.90;;;;;;4969901;28;20066;-86
2024/02/25 10:01:47;;;;;;;6.18;4.68;;;7.40;99.90;;;;;;4992756;28;20030;-86
2024/02/25 10:04:14;;;;;;;6.47;4.45;;;7.50;99.90;;;;;;4973710;28;20078;-85
2024/02/25 10:06:40;;;;;;;9.07;4.88;;;7.50;99.90;;;;;;4983992;28;20023;-86
2024/02/25 10:09:12;;;;;;;5.60;4.25;;;7.50;99.90;;;;;;4969483;28;20039;-85
2024/02/25 10:11:47;;;;;;;6.70;5.38;;;7.60;99.90;;;;;;4982577;28;20084;-85
2024/02/25 10:14:15;;;;;;;7.40;5.30;;;7.60;99.90;;;;;;4977973;28;20126;-85
2024/02/25 10:16:41;;;;;;;6.50;5.10;;;7.70;99.90;;;;;;4974188;28;20606;-85
2024/02/25 10:19:09;;;;;;;6.75;4.82;;;7.80;99.90;;;;;;4992843;28;20033;-85
2024/02/25 10:21:34;;;;;;;7.50;5.28;;;7.90;99.90;;;;;;4968610;28;20025;-85
2024/02/25 10:24:00;;;;;;;8.02;5.32;;;7.90;99.90;;;;;;4978190;28;20551;-86
2024/02/25 10:26:26;;;;;;;6.78;5.68;;;8.00;99.90;;;;;;4971381;28;20483;-86
2024/02/25 10:29:05;;;;;;;9.07;5.88;;;8.10;99.90;;;;;;4969305;28;20022;-85
2024/02/25 10:31:32;;;;;;;8.63;5.95;;;8.10;99.90;;;;;;4969812;28;20027;-86
2024/02/25 10:33:58;;;;;;;8.73;5.38;;;8.10;99.90;;;;;;4979060;28;20035;-86
2024/02/25 10:36:26;;;;;;;6.65;4.82;;;8.00;99.90;;;;;;4995239;28;20030;-85
2024/02/25 10:38:54;;;;;;;8.35;5.28;;;8.00;99.90;;;;;;4999524;28;20030;-84
2024/02/25 10:41:20;;;;;;;6.70;4.93;;;8.00;99.90;;;;;;5001991;28;20054;-85
2024/02/25 10:43:50;;;;;;;6.30;5.38;;;7.90;99.90;;;;;;4979019;28;20031;-86
2024/02/25 10:46:53;;;;;;;8.15;4.88;;;7.90;99.90;;;;;;4976562;28;20030;-85
2024/02/25 10:49:19;;;;;;;7.63;5.30;;;7.90;99.90;;;;;;4971938;28;20085;-85
2024/02/25 10:51:45;;;;;;;12.90;9.07;;;7.80;99.90;;;;;;4979027;28;20037;-85
2024/02/25 10:54:15;;;;;;;15.55;12.10;;;7.70;99.90;;;;;;4998581;28;20066;-85
2024/02/25 10:56:42;;;;;;;19.73;14.45;;;7.70;99.90;;;;;;4988505;28;20039;-85
2024/02/25 10:59:10;;;;;;;22.35;14.48;;;7.70;99.90;;;;;;4978210;28;20027;-85
2024/02/25 11:01:39;;;;;;;18.10;13.77;;;7.70;99.90;;;;;;4978749;28;20037;-85
2024/02/25 11:04:05;;;;;;;21.05;14.75;;;7.70;99.90;;;;;;4978187;28;20506;-85
2024/02/25 11:06:39;;;;;;;23.02;15.48;;;7.70;99.90;;;;;;4976644;28;20040;-85
2024/02/25 11:09:12;;;;;;;21.67;14.82;;;7.70;99.90;;;;;;4977471;28;20504;-85
2024/02/25 11:11:46;;;;;;;18.50;13.20;;;7.70;99.90;;;;;;4995819;28;20026;-85
2024/02/25 11:14:16;;;;;;;10.60;8.50;;;7.80;99.90;;;;;;4985805;28;20042;-85
2024/02/25 11:16:49;;;;;;;9.88;7.22;;;7.80;99.90;;;;;;4977962;28;20544;-85
2024/02/25 11:19:22;;;;;;;11.55;6.97;;;7.90;99.90;;;;;;4968384;28;20046;-85
2024/02/25 11:21:54;;;;;;;9.55;5.43;;;8.00;99.90;;;;;;4994916;28;20022;-85
2024/02/25 11:24:49;;;;;;;6.30;4.88;;;8.10;99.90;;;;;;4995871;28;20046;-85
2024/02/25 11:27:17;;;;;;;5.00;3.90;;;8.20;99.90;;;;;;5004849;28;20083;-85
2024/02/25 11:29:44;;;;;;;4.57;3.38;;;8.30;99.90;;;;;;4983510;28;20032;-85
2024/02/25 11:32:09;;;;;;;6.05;3.30;;;8.50;99.90;;;;;;4999648;28;20018;-85
2024/02/25 11:34:37;;;;;;;6.53;3.97;;;8.60;99.90;;;;;;4980437;28;20395;-85
2024/02/25 11:37:04;;;;;;;6.90;3.67;;;8.80;99.90;;;;;;5004423;28;20022;-85
2024/02/25 11:39:31;;;;;;;4.90;2.90;;;8.90;99.90;;;;;;4990644;28;20483;-85
2024/02/25 11:42:07;;;;;;;5.65;1.85;;;9.00;99.90;;;;;;4991075;28;20027;-85
2024/02/25 11:44:34;;;;;;;5.53;2.13;;;9.10;99.90;;;;;;4978038;28;20030;-85
2024/02/25 11:47:01;;;;;;;4.18;1.60;;;9.20;99.90;;;;;;4994948;28;20441;-85
2024/02/25 11:49:29;;;;;;;3.35;1.00;;;9.40;99.90;;;;;;4976452;28;20390;-85
2024/02/25 11:51:58;;;;;;;2.72;0.82;;;9.40;99.90;;;;;;4976971;28;20487;-85
2024/02/25 11:54:25;;;;;;;3.38;0.60;;;9.50;99.90;;;;;;4975764;28;20549;-85
2024/02/25 11:56:51;;;;;;;2.60;1.00;;;9.50;99.90;;;;;;4993152;28;20085;-85
2024/02/25 11:59:20;;;;;;;8.82;1.15;;;9.50;99.90;;;;;;4985685;28;20050;-85
2024/02/25 12:01:50;;;;;;;1.50;0.90;;;9.60;99.90;;;;;;4995040;28;20023;-85
2024/02/25 12:04:17;;;;;;;2.97;1.30;;;9.70;99.90;;;;;;4994110;28;20040;-85
2024/02/25 12:06:44;;;;;;;3.28;1.30;;;9.70;99.90;;;;;;4977243;28;20390;-84
2024/02/25 12:09:13;;;;;;;3.25;1.20;;;9.80;99.90;;;;;;4977186;28;20410;-84
2024/02/25 12:11:39;;;;;;;3.35;1.23;;;10.00;99.90;;;;;;4973649;28;20019;-84
2024/02/25 12:14:13;;;;;;;4.20;1.58;;;10.00;99.90;;;;;;4994338;28;20064;-84
2024/02/25 12:16:39;;;;;;;4.45;1.00;;;10.20;99.90;;;;;;4986023;28;20096;-84
2024/02/25 12:19:04;;;;;;;2.85;0.93;;;10.40;99.90;;;;;;4965158;28;20459;-84
2024/02/25 12:21:30;;;;;;;6.75;0.73;;;10.40;99.90;;;;;;4973262;28;20138;-84
2024/02/25 12:23:58;;;;;;;2.20;0.95;;;10.40;99.90;;;;;;4957345;28;20491;-84
2024/02/25 12:26:24;;;;;;;3.30;0.90;;;10.50;99.90;;;;;;4977951;28;20109;-84
2024/02/25 12:28:50;;;;;;;2.88;0.80;;;10.70;99.90;;;;;;4966889;28;20129;-85
2024/02/25 12:31:16;;;;;;;3.92;0.85;;;10.70;99.90;;;;;;4974404;28;20121;-84
2024/02/25 12:33:42;;;;;;;2.08;0.80;;;10.80;99.90;;;;;;4975468;28;20034;-83
2024/02/25 12:36:08;;;;;;;2.60;0.85;;;10.90;99.90;;;;;;4976391;28;20029;-84
2024/02/25 12:38:33;;;;;;;1.67;0.60;;;10.90;99.90;;;;;;4988206;28;20030;-84
2024/02/25 12:41:03;;;;;;;3.08;0.70;;;10.90;99.90;;;;;;4976186;28;20360;-84
2024/02/25 12:43:29;;;;;;;5.63;0.70;;;10.80;99.90;;;;;;4979272;28;20037;-84
2024/02/25 12:45:55;;;;;;;3.10;0.60;;;10.80;99.90;;;;;;4993266;28;20026;-85
2024/02/25 12:48:21;;;;;;;2.38;0.60;;;10.80;99.90;;;;;;4991838;28;20022;-84
2024/02/25 12:50:46;;;;;;;2.67;0.50;;;10.60;99.90;;;;;;4982884;28;20133;-84